Time;durP1;ratioP1;P1;durP2;ratioP2;P2;SDS_P1;SDS_P2;PMS_P1;PMS_P2;Temp;Humidity;BMP_temperature;BMP_pressure;BME280_temperature;BME280_humidity;BME280_pressure;Samples;Min_cycle;Max_cycle;Signal;HPM_P1;HPM_P2
2022/06/09 00:01:36;;;;;;;9.25;1.65;;;;;;;10.56;85.47;100002.69;6108786;23;20067;-72
2022/06/09 00:04:14;;;;;;;10.20;1.55;;;;;;;10.54;85.19;100000.25;6131678;23;20173;-72
2022/06/09 00:06:49;;;;;;;16.23;2.05;;;;;;;10.57;85.26;100005.16;6134623;23;20668;-73
2022/06/09 00:09:17;;;;;;;16.55;1.75;;;;;;;10.47;84.94;99999.72;6132854;23;20021;-74
2022/06/09 00:11:48;;;;;;;13.18;2.08;;;;;;;10.38;85.39;99990.41;6160782;23;20055;-75
2022/06/09 00:14:14;;;;;;;8.77;1.63;;;;;;;10.37;85.45;100005.19;6158952;23;20016;-74
2022/06/09 00:16:41;;;;;;;14.15;2.55;;;;;;;10.38;86.00;100010.38;6133168;23;20056;-73
2022/06/09 00:19:07;;;;;;;12.57;1.67;;;;;;;10.36;86.17;100009.00;6159856;23;20375;-73
2022/06/09 00:21:35;;;;;;;14.98;2.00;;;;;;;10.33;86.52;100020.47;6157599;23;20013;-74
2022/06/09 00:24:00;;;;;;;9.32;1.85;;;;;;;10.28;86.74;100024.81;6160103;23;20009;-73
2022/06/09 00:26:26;;;;;;;12.20;1.85;;;;;;;10.23;86.94;100019.34;6131637;23;20096;-74
2022/06/09 00:28:51;;;;;;;14.63;2.25;;;;;;;10.23;86.85;100022.09;6134697;23;19993;-74
2022/06/09 00:31:17;;;;;;;10.27;1.55;;;;;;;10.28;87.83;100035.75;6105971;23;20037;-72
2022/06/09 00:33:43;;;;;;;8.80;1.63;;;;;;;10.25;87.49;100030.84;6157293;23;20460;-72
2022/06/09 00:36:08;;;;;;;11.15;1.77;;;;;;;10.22;87.62;100023.19;6133032;23;20041;-72
2022/06/09 00:38:34;;;;;;;10.82;1.95;;;;;;;10.22;88.11;100025.09;6132670;23;20021;-73
2022/06/09 00:41:00;;;;;;;14.20;1.52;;;;;;;10.19;88.71;100026.47;6108429;23;20010;-73
2022/06/09 00:43:32;;;;;;;9.50;1.60;;;;;;;10.21;88.28;100021.56;6160212;23;19998;-71
2022/06/09 00:46:10;;;;;;;11.45;2.15;;;;;;;10.17;88.78;100020.44;6109763;23;20013;-72
2022/06/09 00:48:55;;;;;;;14.65;2.03;;;;;;;10.11;89.00;100027.81;6160357;23;20428;-73
2022/06/09 00:51:35;;;;;;;9.13;1.77;;;;;;;10.12;89.38;100032.19;6159807;23;20008;-73
2022/06/09 00:54:12;;;;;;;15.00;2.15;;;;;;;10.17;90.11;100031.38;6158173;23;20499;-73
2022/06/09 00:56:43;;;;;;;4.55;1.15;;;;;;;10.17;89.48;100022.38;6160186;23;20012;-73
2022/06/09 00:59:15;;;;;;;14.93;1.98;;;;;;;10.19;89.74;100037.41;6159963;23;20009;-72
2022/06/09 01:01:41;;;;;;;10.60;1.95;;;;;;;10.19;90.11;100033.84;6158959;23;20013;-72
2022/06/09 01:04:10;;;;;;;12.63;2.05;;;;;;;10.21;89.83;100043.41;6132449;23;20103;-73
2022/06/09 01:06:43;;;;;;;9.32;1.63;;;;;;;10.18;89.52;100041.22;6158841;23;20072;-73
2022/06/09 01:09:15;;;;;;;14.77;1.80;;;;;;;10.14;90.02;100045.59;6157410;23;20044;-73
2022/06/09 01:11:41;;;;;;;14.15;1.73;;;;;;;10.12;90.15;100045.88;6158584;23;20006;-74
2022/06/09 01:14:10;;;;;;;16.52;3.08;;;;;;;10.07;90.47;100042.31;6159818;23;20009;-72
2022/06/09 01:16:36;;;;;;;16.08;2.05;;;;;;;10.11;90.80;100040.69;6134922;23;20009;-72
2022/06/09 01:19:16;;;;;;;9.95;1.98;;;;;;;10.16;90.60;100048.84;6132803;23;20016;-73
2022/06/09 01:22:02;;;;;;;18.50;2.00;;;;;;;10.20;90.41;100049.16;6159913;23;20028;-73
2022/06/09 01:25:03;;;;;;;9.15;1.40;;;;;;;10.19;90.03;100037.41;6157610;23;20040;-73
2022/06/09 01:28:06;;;;;;;5.78;1.42;;;;;;;10.24;90.21;100051.06;6155522;23;20076;-73
2022/06/09 01:30:45;;;;;;;8.80;1.48;;;;;;;10.26;90.56;100048.88;6154742;23;19997;-72
2022/06/09 01:33:15;;;;;;;19.45;2.10;;;;;;;10.26;90.12;100048.88;6156539;23;20025;-73
2022/06/09 01:36:13;;;;;;;11.45;2.13;;;;;;;10.33;90.08;100054.06;6135053;23;20025;-75
2022/06/09 01:38:52;;;;;;;16.20;2.70;;;;;;;10.28;90.43;100035.75;6158427;23;19998;-72
2022/06/09 01:41:19;;;;;;;11.23;2.03;;;;;;;10.23;89.84;100038.47;6134281;23;20037;-73
2022/06/09 01:43:46;;;;;;;12.45;1.80;;;;;;;10.26;90.27;100054.31;6108278;23;20132;-74
2022/06/09 01:46:24;;;;;;;9.68;1.95;;;;;;;10.23;90.61;100043.13;6159294;23;20088;-73
2022/06/09 01:48:54;;;;;;;9.75;1.73;;;;;;;10.22;90.96;100056.00;6161331;23;20332;-73
2022/06/09 01:51:22;;;;;;;17.00;3.08;;;;;;;10.22;90.83;100064.19;6134621;23;20008;-74
2022/06/09 01:53:59;;;;;;;9.38;1.65;;;;;;;10.20;91.43;100038.22;6159769;23;20065;-74
2022/06/09 01:56:33;;;;;;;17.38;2.88;;;;;;;10.26;91.21;100061.72;6134521;23;20001;-74
2022/06/09 01:59:22;;;;;;;15.65;3.00;;;;;;;10.16;91.33;100048.06;6133206;23;20409;-75
2022/06/09 02:02:19;;;;;;;12.80;2.22;;;;;;;10.20;91.23;100060.88;6158149;23;20033;-75
2022/06/09 02:04:51;;;;;;;8.20;1.48;;;;;;;10.12;91.48;100042.31;6097951;23;20012;-73
2022/06/09 02:07:19;;;;;;;11.43;1.90;;;;;;;10.06;91.81;100048.84;6158029;23;20009;-74
2022/06/09 02:09:46;;;;;;;11.00;1.83;;;;;;;10.00;92.17;100050.75;6158703;23;20033;-73
2022/06/09 02:12:15;;;;;;;17.63;3.25;;;;;;;9.96;92.62;100053.22;6133021;23;20006;-73
2022/06/09 02:14:47;;;;;;;11.73;1.95;;;;;;;9.86;92.89;100055.94;6133709;23;20424;-73
2022/06/09 02:17:14;;;;;;;12.23;1.75;;;;;;;9.91;93.19;100064.13;6134591;23;20005;-74
2022/06/09 02:19:41;;;;;;;10.77;1.92;;;;;;;9.83;92.94;100061.94;6134759;23;20016;-73
2022/06/09 02:22:10;;;;;;;12.00;1.90;;;;;;;9.81;92.91;100069.56;6109935;23;20001;-74
2022/06/09 02:24:36;;;;;;;12.88;2.03;;;;;;;9.68;93.13;100059.16;6135046;23;20061;-75
2022/06/09 02:27:33;;;;;;;11.82;1.60;;;;;;;9.71;93.06;100075.00;6111878;23;20000;-73
2022/06/09 02:33:10;;;;;;;2.55;1.00;;;;;;;9.52;93.21;100077.41;6161961;23;20096;-74
2022/06/09 02:35:56;;;;;;;3.83;1.00;;;;;;;9.55;93.10;100079.59;6117203;23;20017;-74
2022/06/09 02:38:22;;;;;;;4.18;1.00;;;;;;;9.36;93.50;100062.88;6136259;23;20053;-74
2022/06/09 02:40:57;;;;;;;7.40;1.23;;;;;;;9.24;92.89;100049.44;6135057;23;20005;-73
2022/06/09 02:43:26;;;;;;;9.93;1.50;;;;;;;9.25;93.09;100051.91;6162719;23;20029;-73
2022/06/09 02:45:54;;;;;;;14.52;1.98;;;;;;;9.40;93.25;100063.97;6135420;23;19997;-75
2022/06/09 02:48:20;;;;;;;21.73;2.28;;;;;;;9.40;93.89;100047.63;6162755;23;20053;-73
2022/06/09 02:50:59;;;;;;;13.52;2.17;;;;;;;9.65;94.70;100081.53;6136393;23;20012;-74
2022/06/09 02:53:34;;;;;;;;;;;;;;;;;;;;;
2022/06/09 02:56:03;;;;;;;12.55;2.10;;;;;;;9.61;94.16;100084.81;6137925;23;20456;-74
2022/06/09 02:58:29;;;;;;;12.60;2.00;;;;;;;9.75;95.20;100104.25;6135196;23;20005;-74
2022/06/09 03:00:57;;;;;;;12.75;2.20;;;;;;;9.78;95.00;100114.63;6158908;23;20009;-72
2022/06/09 03:03:23;;;;;;;12.15;2.45;;;;;;;9.72;94.84;100103.97;6108637;23;20103;-74
2022/06/09 03:05:49;;;;;;;17.38;2.47;;;;;;;9.69;94.89;100099.03;6112236;23;20056;-74
2022/06/09 03:08:15;;;;;;;20.00;2.38;;;;;;;9.69;95.14;100107.22;6111384;23;20000;-74
2022/06/09 03:10:41;;;;;;;18.50;2.90;;;;;;;9.61;95.07;100090.28;6109944;23;20025;-72
2022/06/09 03:13:07;;;;;;;8.75;1.70;;;;;;;9.69;95.10;100099.03;6110920;23;20068;-73
2022/06/09 03:15:33;;;;;;;6.10;2.03;;;;;;;9.72;95.08;100098.50;6111677;23;20005;-74
2022/06/09 03:17:59;;;;;;;11.93;2.08;;;;;;;9.80;94.85;100117.09;6133857;23;20013;-73
2022/06/09 03:20:27;;;;;;;7.22;1.55;;;;;;;9.67;94.55;100098.50;6110451;23;20744;-73
2022/06/09 03:22:54;;;;;;;10.73;2.22;;;;;;;9.66;94.71;100094.13;6136574;23;20036;-72
2022/06/09 03:25:20;;;;;;;10.27;1.85;;;;;;;9.59;94.63;100100.66;6135967;23;20059;-73
2022/06/09 03:27:46;;;;;;;7.93;1.95;;;;;;;9.61;95.05;100103.94;6110175;23;20024;-74
2022/06/09 03:30:12;;;;;;;13.15;2.58;;;;;;;9.58;95.42;100103.66;6136948;23;20035;-75
2022/06/09 03:32:45;;;;;;;10.60;2.15;;;;;;;9.53;95.60;100098.97;6134772;23;20022;-74
2022/06/09 03:48:24;;;;;;;18.98;2.17;;;;;;;9.57;95.99;100130.09;5847965;24;20073;-73
2022/06/09 03:50:49;;;;;;;11.32;1.77;;;;;;;9.58;95.68;100131.75;5858962;23;20048;-74
2022/06/09 03:53:15;;;;;;;20.50;2.08;;;;;;;9.57;96.30;100127.38;6063603;23;20086;-73
2022/06/09 03:55:40;;;;;;;14.25;2.28;;;;;;;9.68;96.38;100133.72;6100853;23;20014;-72
2022/06/09 03:58:06;;;;;;;19.33;2.42;;;;;;;9.75;96.08;100131.56;6131423;23;20002;-72
2022/06/09 04:00:32;;;;;;;20.88;2.28;;;;;;;9.81;96.01;100135.09;6129801;23;20006;-73
2022/06/09 04:03:27;;;;;;;13.57;1.60;;;;;;;9.81;95.65;100129.66;6132491;23;20006;-75
2022/06/09 04:05:54;;;;;;;12.43;2.33;;;;;;;9.76;95.70;100130.47;6130556;23;20319;-74
2022/06/09 04:08:21;;;;;;;9.00;1.75;;;;;;;9.84;95.36;100145.53;6104443;23;20454;-75
2022/06/09 04:10:48;;;;;;;15.90;2.30;;;;;;;9.89;95.00;100126.41;6082034;23;20009;-74
2022/06/09 04:13:15;;;;;;;19.25;2.50;;;;;;;9.98;95.53;100123.16;6104462;23;20417;-73
2022/06/09 04:15:43;;;;;;;19.15;2.35;;;;;;;10.11;95.02;100128.91;6081557;23;20064;-75
2022/06/09 04:18:11;;;;;;;14.95;2.00;;;;;;;10.09;94.60;100130.25;6105545;23;20006;-73
2022/06/09 04:20:37;;;;;;;14.73;2.40;;;;;;;10.24;93.73;100154.91;6105226;23;20092;-74
2022/06/09 04:23:02;;;;;;;16.10;1.95;;;;;;;10.23;93.72;100158.72;6132680;23;20017;-76
2022/06/09 04:25:28;;;;;;;13.13;3.00;;;;;;;10.22;93.41;100151.63;6081329;23;20020;-75
2022/06/09 04:27:54;;;;;;;11.23;1.98;;;;;;;10.13;93.13;100136.84;6135479;23;20005;-74
2022/06/09 04:30:22;;;;;;;15.82;1.83;;;;;;;10.13;93.66;100148.59;6133596;23;20025;-74
2022/06/09 04:38:11;;;;;;;18.33;2.50;;;;;;;9.92;93.23;100120.41;6133809;23;20030;-75
2022/06/09 04:44:15;;;;;;;9.70;1.88;;;;;;;10.06;93.15;100155.41;6013283;23;20040;-75
2022/06/09 04:50:57;;;;;;;18.67;2.60;;;;;;;10.14;92.89;100160.34;6013957;23;20014;-73
2022/06/09 04:57:46;;;;;;;18.17;1.90;;;;;;;10.54;91.79;100196.25;5914925;24;20012;-76
2022/06/09 05:00:23;;;;;;;11.35;2.58;;;;;;;10.60;91.58;100193.28;5958094;24;20005;-75
2022/06/09 05:02:51;;;;;;;17.15;2.72;;;;;;;10.80;90.74;100205.31;5945664;23;20019;-75
2022/06/09 05:05:21;;;;;;;12.48;2.28;;;;;;;10.86;90.19;100212.41;6101520;23;20055;-75
2022/06/09 05:07:47;;;;;;;16.90;1.98;;;;;;;10.93;89.76;100221.16;6161872;23;20405;-75
2022/06/09 05:10:18;;;;;;;12.25;1.88;;;;;;;10.88;89.44;100203.94;6135065;23;20018;-74
2022/06/09 05:12:55;;;;;;;19.77;1.92;;;;;;;10.93;89.51;100199.28;6160437;23;20013;-72
2022/06/09 05:15:52;;;;;;;19.27;2.78;;;;;;;10.96;88.70;100209.69;6156631;23;20008;-74
2022/06/09 05:18:25;;;;;;;12.32;1.73;;;;;;;11.01;89.08;100222.56;6160781;23;20060;-74
2022/06/09 05:21:11;;;;;;;12.80;1.75;;;;;;;11.11;88.28;100255.41;6140112;23;20068;-73
2022/06/09 05:23:37;;;;;;;17.42;2.22;;;;;;;11.11;88.35;100246.34;6135505;23;20080;-74
2022/06/09 05:26:05;;;;;;;10.93;1.92;;;;;;;11.11;87.52;100238.97;6136498;23;20009;-74
2022/06/09 05:31:57;;;;;;;11.88;1.27;;;;;;;11.36;87.07;100256.47;6135232;23;20037;-76
2022/06/09 05:34:25;;;;;;;12.07;1.95;;;;;;;11.34;87.28;100254.00;6127361;23;20002;-74
2022/06/09 05:36:51;;;;;;;8.23;1.50;;;;;;;11.46;87.02;100252.88;6077928;23;20036;-71
2022/06/09 05:44:56;;;;;;;18.07;1.90;;;;;;;11.79;85.73;100261.59;6129782;23;20017;-72
2022/06/09 05:47:23;;;;;;;11.15;1.85;;;;;;;11.82;85.38;100258.31;6127169;23;20014;-73
2022/06/09 05:49:51;;;;;;;6.03;1.15;;;;;;;11.92;84.90;100263.75;6104767;23;20010;-73
2022/06/09 05:52:23;;;;;;;9.90;2.13;;;;;;;12.04;85.05;100272.50;6129298;23;20001;-73
2022/06/09 05:54:51;;;;;;;10.45;1.92;;;;;;;12.13;84.23;100258.22;6130279;23;20309;-73
2022/06/09 05:57:19;;;;;;;6.90;1.48;;;;;;;12.34;83.16;100265.25;6079440;23;20045;-72
2022/06/09 05:59:44;;;;;;;14.52;2.03;;;;;;;12.57;82.66;100269.25;6104589;23;20018;-72
2022/06/09 06:02:10;;;;;;;11.52;1.77;;;;;;;12.94;81.07;100278.06;6129170;23;20413;-73
2022/06/09 06:04:36;;;;;;;16.10;2.20;;;;;;;13.23;79.91;100285.53;6129677;23;20338;-72
2022/06/09 06:07:02;;;;;;;17.25;2.30;;;;;;;13.51;79.44;100286.69;6131294;23;20006;-74
2022/06/09 06:09:35;;;;;;;10.82;1.58;;;;;;;13.69;78.21;100273.34;6129473;23;20061;-73
2022/06/09 06:12:03;;;;;;;5.28;1.67;;;;;;;14.10;77.94;100292.94;6131115;23;20016;-73
2022/06/09 06:14:31;;;;;;;4.93;1.15;;;;;;;14.26;76.84;100279.00;6125312;23;20009;-73
2022/06/09 06:16:58;;;;;;;12.50;1.60;;;;;;;14.41;75.87;100281.56;6130490;23;20010;-74
2022/06/09 06:19:24;;;;;;;12.52;1.92;;;;;;;14.69;74.52;100303.78;6103538;23;20036;-73
2022/06/09 06:21:51;;;;;;;12.27;1.95;;;;;;;14.75;73.60;100302.59;6129770;23;20021;-73
2022/06/09 06:24:18;;;;;;;7.65;1.98;;;;;;;14.97;72.83;100303.94;6104007;23;20025;-73
2022/06/09 06:26:47;;;;;;;10.43;2.30;;;;;;;14.98;72.21;100295.38;6131059;23;20009;-73
2022/06/09 06:29:19;;;;;;;8.20;1.85;;;;;;;15.12;71.74;100302.88;6083130;23;20710;-74
2022/06/09 06:31:45;;;;;;;6.28;1.20;;;;;;;15.10;71.41;100297.69;6128751;23;20001;-72
2022/06/09 06:34:16;;;;;;;9.23;1.60;;;;;;;15.03;71.66;100302.75;6081870;23;20029;-74
2022/06/09 06:36:59;;;;;;;12.25;1.90;;;;;;;14.97;71.90;100312.22;6104545;23;20425;-72
2022/06/09 06:39:25;;;;;;;3.35;1.02;;;;;;;15.05;72.46;100317.03;6128556;23;20006;-73
2022/06/09 06:41:51;;;;;;;12.32;1.42;;;;;;;15.12;71.56;100305.63;6103304;23;20014;-73
2022/06/09 06:44:19;;;;;;;14.88;2.30;;;;;;;15.10;71.66;100310.59;6081326;23;20417;-76
2022/06/09 06:46:45;;;;;;;8.15;1.30;;;;;;;15.16;71.91;100317.69;6129705;23;20005;-72
2022/06/09 06:49:10;;;;;;;9.50;2.10;;;;;;;15.02;71.08;100309.34;6107271;23;20064;-73
2022/06/09 06:51:39;;;;;;;9.43;1.63;;;;;;;15.15;70.84;100333.38;6129650;23;20025;-74
2022/06/09 06:54:05;;;;;;;15.75;2.35;;;;;;;15.22;70.05;100321.19;6131343;23;20073;-73
2022/06/09 06:56:32;;;;;;;8.45;1.80;;;;;;;15.32;69.58;100321.03;6129753;23;20006;-76
2022/06/09 06:58:58;;;;;;;10.02;1.88;;;;;;;15.46;69.32;100321.91;6104624;23;20014;-75
2022/06/09 07:01:24;;;;;;;11.20;1.85;;;;;;;15.87;68.78;100336.91;6129559;23;20052;-75
2022/06/09 07:03:49;;;;;;;13.10;1.95;;;;;;;16.12;68.03;100332.03;6081432;23;20031;-75
2022/06/09 07:06:15;;;;;;;15.52;2.08;;;;;;;16.17;67.42;100332.75;6081500;23;20452;-75
2022/06/09 07:08:44;;;;;;;11.45;1.92;;;;;;;16.35;66.38;100344.00;6105530;23;20006;-76
2022/06/09 07:11:43;;;;;;;8.45;1.60;;;;;;;16.46;65.52;100364.75;6132283;23;20393;-75
2022/06/09 07:17:55;;;;;;;;;;;;;;;;;;;;;
2022/06/09 07:20:30;;;;;;;12.07;1.70;;;;;;;16.81;62.52;100332.00;6132853;23;20029;-74
2022/06/09 07:22:58;;;;;;;20.60;2.70;;;;;;;16.91;62.35;100356.66;6106964;23;20006;-75
2022/06/09 07:25:35;;;;;;;6.97;1.42;;;;;;;16.88;62.29;100337.09;6106544;23;20013;-74
2022/06/09 07:28:11;;;;;;;;;;;;;;;;;;;;;
2022/06/09 07:30:50;;;;;;;;;;;;;;;;;;;;;
2022/06/09 07:33:16;;;;;;;7.85;1.52;;;;;;;17.39;57.50;100340.63;6134828;23;20029;-74
2022/06/09 07:36:00;;;;;;;9.20;1.50;;;;;;;17.43;58.15;100342.47;6132601;23;20014;-76
2022/06/09 07:38:35;;;;;;;9.05;1.38;;;;;;;17.63;58.08;100349.41;6132537;23;20018;-75
2022/06/09 07:41:08;;;;;;;10.70;1.58;;;;;;;17.71;57.38;100327.66;6133197;23;20060;-74
2022/06/09 07:43:42;;;;;;;4.82;1.30;;;;;;;18.16;55.87;100333.13;6109450;23;20021;-75
2022/06/09 07:46:07;;;;;;;6.90;1.40;;;;;;;18.28;55.17;100315.91;6131293;23;20002;-73
2022/06/09 07:48:35;;;;;;;8.27;1.42;;;;;;;18.36;54.19;100317.09;6133473;23;20505;-74
2022/06/09 07:51:14;;;;;;;;;;;;;;;;;;;;;
2022/06/09 07:53:39;;;;;;;13.48;1.70;;;;;;;18.58;53.30;100322.50;6132557;23;20021;-75
2022/06/09 07:56:08;;;;;;;13.18;1.92;;;;;;;18.85;52.71;100334.44;6085184;23;20012;-76
2022/06/09 07:58:40;;;;;;;8.90;1.60;;;;;;;19.09;51.89;100335.97;6107160;23;20029;-76
2022/06/09 08:01:17;;;;;;;;;;;;;;;;;;;;;
2022/06/09 08:03:46;;;;;;;13.77;1.25;;;;;;;18.54;51.97;100340.88;6134918;23;20254;-74
2022/06/09 08:10:06;;;;;;;12.13;1.45;;;;;;;18.23;53.75;100363.91;6075175;23;20007;-77
2022/06/09 08:16:00;;;;;;;6.63;1.17;;;;;;;18.66;54.65;100379.88;6133154;23;20006;-75
2022/06/09 08:18:58;;;;;;;18.10;1.95;;;;;;;18.89;54.21;100368.69;6108951;23;20021;-74
2022/06/09 08:21:48;;;;;;;11.35;1.50;;;;;;;19.09;54.17;100383.06;6132734;23;20101;-75
2022/06/09 08:24:46;;;;;;;13.18;1.88;;;;;;;18.73;54.01;100353.66;6114987;23;20002;-75
2022/06/09 08:27:37;;;;;;;7.60;1.48;;;;;;;18.61;54.76;100374.47;6137440;23;19998;-76
2022/06/09 08:30:25;;;;;;;;;;;;;;;;;;;;;
2022/06/09 08:32:57;;;;;;;11.48;1.52;;;;;;;18.80;54.72;100409.38;6135259;23;20034;-77
2022/06/09 08:35:36;;;;;;;;;;;;;;;;;;;;;
2022/06/09 08:38:09;;;;;;;9.85;1.67;;;;;;;18.62;54.85;100419.59;6133352;23;20036;-75
2022/06/09 08:41:18;;;;;;;7.40;1.13;;;;;;;18.37;54.73;100416.41;6132227;23;20006;-74
2022/06/09 08:43:55;;;;;;;10.43;1.40;;;;;;;18.09;55.66;100424.06;6134710;23;20010;-75
2022/06/09 08:46:49;;;;;;;13.15;1.98;;;;;;;17.83;57.49;100416.41;6136373;23;20054;-74
2022/06/09 08:49:41;;;;;;;15.65;2.22;;;;;;;18.08;57.64;100422.44;6133119;23;20017;-75
2022/06/09 08:52:23;;;;;;;6.95;1.33;;;;;;;18.31;56.51;100399.13;6134346;23;20327;-76
2022/06/09 08:55:19;;;;;;;9.20;1.30;;;;;;;18.75;55.94;100417.84;6133554;23;20340;-75
2022/06/09 08:57:45;;;;;;;14.35;2.08;;;;;;;18.77;55.53;100405.31;6134699;23;20077;-76
2022/06/09 09:00:32;;;;;;;6.82;1.58;;;;;;;18.80;54.94;100395.53;6108717;23;20002;-75
2022/06/09 09:03:12;;;;;;;9.75;2.05;;;;;;;18.74;54.01;100382.97;6110027;23;20013;-74
2022/06/09 09:06:07;;;;;;;10.32;1.70;;;;;;;18.76;54.45;100409.22;6133010;23;20002;-76
2022/06/09 09:08:58;;;;;;;12.05;1.92;;;;;;;18.66;54.93;100410.34;6131006;23;20432;-75
2022/06/09 09:11:56;;;;;;;8.45;1.45;;;;;;;18.97;54.01;100430.81;6133768;23;20005;-76
2022/06/09 09:15:04;;;;;;;11.88;1.85;;;;;;;18.89;52.66;100399.16;6105889;23;20002;-75
2022/06/09 09:17:40;;;;;;;10.30;1.85;;;;;;;19.19;53.04;100449.28;6135275;23;20022;-75
2022/06/09 09:20:37;;;;;;;7.30;1.98;;;;;;;19.22;52.96;100434.75;6132296;23;20010;-74
2022/06/09 09:23:42;;;;;;;10.82;1.77;;;;;;;19.16;51.94;100417.47;6090363;23;20006;-75
2022/06/09 09:26:21;;;;;;;6.45;1.70;;;;;;;19.18;53.10;100431.00;6128748;23;20048;-74
2022/06/09 09:29:27;;;;;;;9.77;1.73;;;;;;;19.33;52.15;100422.22;6130978;23;20077;-74
2022/06/09 09:32:14;;;;;;;8.57;1.80;;;;;;;19.61;51.29;100435.78;6130580;23;20016;-75
2022/06/09 09:35:10;;;;;;;;;;;;;;;;;;;;;
2022/06/09 09:38:05;;;;;;;7.57;1.58;;;;;;;19.58;51.31;100405.91;6133500;23;20033;-75
2022/06/09 09:40:46;;;;;;;12.82;1.60;;;;;;;19.53;51.04;100436.56;6155240;23;20013;-75
2022/06/09 09:43:13;;;;;;;6.25;1.17;;;;;;;19.46;51.19;100430.69;6130074;23;20005;-74
2022/06/09 09:45:55;;;;;;;15.15;2.10;;;;;;;19.45;50.64;100448.47;6131374;23;19998;-75
2022/06/09 09:48:28;;;;;;;4.30;1.25;;;;;;;19.46;50.94;100452.88;6133218;23;20425;-76
2022/06/09 09:51:18;;;;;;;5.45;1.58;;;;;;;19.59;50.31;100435.25;6106199;23;20006;-75
2022/06/09 09:53:56;;;;;;;7.50;1.45;;;;;;;19.70;49.94;100453.22;6132553;23;20078;-76
2022/06/09 09:56:58;;;;;;;;;;;;;;;;;;;;;
2022/06/09 09:59:47;;;;;;;8.18;1.55;;;;;;;19.86;49.59;100433.34;6127089;23;20048;-75
2022/06/09 10:08:38;;;;;;;8.77;1.63;;;;;;;20.60;49.04;100422.16;6131629;23;20041;-74
2022/06/09 10:15:14;;;;;;;6.57;1.48;;;;;;;20.65;49.78;100447.78;6130056;23;20021;-75
2022/06/09 10:17:56;;;;;;;11.25;1.70;;;;;;;20.74;48.45;100451.34;6127601;23;20010;-75
2022/06/09 10:20:30;;;;;;;5.90;1.45;;;;;;;20.27;49.51;100448.59;6126907;23;20006;-74
2022/06/09 10:23:09;;;;;;;10.23;1.95;;;;;;;20.08;49.62;100431.47;6127840;23;20497;-73
2022/06/09 10:26:02;;;;;;;5.38;1.30;;;;;;;20.51;49.17;100463.84;6129237;23;20084;-76
2022/06/09 10:29:16;;;;;;;;;;;;;;;;;;;;;
2022/06/09 10:32:24;;;;;;;8.37;1.37;;;;;;;20.86;47.42;100452.63;6131593;23;20032;-76
2022/06/09 10:35:06;;;;;;;4.53;1.20;;;;;;;21.87;45.25;100456.50;6132154;23;20002;-74
2022/06/09 10:37:49;;;;;;;3.80;0.98;;;;;;;22.05;43.74;100443.19;6104438;23;20010;-76
2022/06/09 10:40:56;;;;;;;6.80;1.30;;;;;;;22.32;44.22;100444.59;6102005;23;19990;-75
2022/06/09 10:43:44;;;;;;;;;;;;;;;;;;;;;
2022/06/09 10:46:28;;;;;;;5.90;1.38;;;;;;;24.90;39.10;100450.53;6117669;23;20033;-74
2022/06/09 10:55:35;;;;;;;7.22;1.40;;;;;;;25.14;38.16;100462.66;6129779;23;20021;-75
2022/06/09 10:58:46;;;;;;;4.18;1.45;;;;;;;25.58;37.92;100434.47;6130876;23;20057;-75
2022/06/09 11:01:34;;;;;;;;;;;;;;;;;;;;;
2022/06/09 11:04:06;;;;;;;3.58;1.10;;;;;;;25.38;36.53;100439.25;6132223;23;20037;-76
2022/06/09 11:07:12;;;;;;;;;;;;;;;;;;;;;
2022/06/09 11:10:10;;;;;;;10.05;1.77;;;;;;;23.15;39.87;100434.16;6131799;23;20040;-75
2022/06/09 11:12:53;;;;;;;7.47;1.80;;;;;;;22.82;40.03;100457.41;6130449;23;20002;-75
2022/06/09 11:15:29;;;;;;;5.53;1.13;;;;;;;22.93;40.83;100454.16;6131932;23;20002;-74
2022/06/09 11:18:12;;;;;;;3.95;0.93;;;;;;;23.02;40.28;100460.41;6132689;23;20017;-74
2022/06/09 11:21:05;;;;;;;17.17;1.77;;;;;;;23.07;39.54;100462.97;6132728;23;19993;-75
2022/06/09 11:24:07;;;;;;;4.20;0.88;;;;;;;22.85;40.02;100439.16;6133346;23;20005;-75
2022/06/09 11:26:54;;;;;;;9.38;1.42;;;;;;;23.11;40.07;100461.13;6107327;23;20048;-75
2022/06/09 11:29:37;;;;;;;7.85;1.23;;;;;;;22.94;40.57;100458.56;6133959;23;20002;-75
2022/06/09 11:32:30;;;;;;;10.07;1.40;;;;;;;23.20;40.85;100460.19;6132179;23;20337;-76
2022/06/09 11:35:20;;;;;;;4.95;0.95;;;;;;;22.96;40.61;100447.88;6131285;23;20691;-75
2022/06/09 11:38:10;;;;;;;5.53;1.55;;;;;;;22.67;41.83;100463.66;6132447;23;20012;-76
2022/06/09 11:41:04;;;;;;;13.43;1.95;;;;;;;22.81;42.43;100454.97;6129149;23;20001;-75
2022/06/09 11:43:50;;;;;;;9.57;1.30;;;;;;;23.23;41.30;100449.16;6130977;23;20056;-75
2022/06/09 11:46:21;;;;;;;6.78;1.75;;;;;;;23.39;41.86;100446.44;6130590;23;20012;-75
2022/06/09 11:48:50;;;;;;;13.02;1.58;;;;;;;23.46;40.54;100452.22;6128993;23;20399;-76
2022/06/09 11:51:22;;;;;;;8.20;1.63;;;;;;;22.61;42.90;100449.16;6133540;23;20012;-76
2022/06/09 11:53:56;;;;;;;6.45;1.15;;;;;;;22.17;43.89;100445.22;6107022;23;20069;-75
2022/06/09 13:00:34;;;;;;;4.03;1.30;;;;;;;21.67;44.31;100478.44;6081778;23;20634;-74
2022/06/09 13:02:59;;;;;;;9.95;1.58;;;;;;;20.97;45.09;100441.91;6072693;23;20018;-75
2022/06/09 13:05:34;;;;;;;6.25;1.25;;;;;;;20.48;46.68;100458.97;6074442;23;20026;-75
2022/06/09 13:08:16;;;;;;;6.65;1.33;;;;;;;19.76;49.06;100455.84;6102184;23;20102;-75
2022/06/09 13:10:46;;;;;;;6.65;1.25;;;;;;;19.46;50.68;100459.22;6102106;23;20002;-74
2022/06/09 13:13:39;;;;;;;9.05;1.30;;;;;;;19.28;51.41;100452.88;6075656;23;20010;-74
2022/06/09 13:16:11;;;;;;;8.80;1.08;;;;;;;19.43;51.06;100434.94;6076128;23;20017;-73
2022/06/09 13:18:42;;;;;;;10.57;1.38;;;;;;;19.44;51.62;100457.94;6076232;23;20026;-75
2022/06/09 13:21:23;;;;;;;13.23;1.60;;;;;;;19.23;52.58;100455.81;6075202;23;20013;-75
2022/06/09 13:23:52;;;;;;;9.30;1.45;;;;;;;19.20;53.08;100445.34;6076245;23;19999;-75
2022/06/09 13:26:25;;;;;;;4.90;1.00;;;;;;;19.53;53.56;100472.63;6076064;23;20003;-74
2022/06/09 13:28:55;;;;;;;8.13;1.47;;;;;;;19.82;52.39;100449.00;6074054;23;20013;-74
2022/06/09 13:31:36;;;;;;;8.45;1.85;;;;;;;20.19;50.95;100468.84;6100947;23;20049;-74
2022/06/09 13:34:19;;;;;;;6.18;1.58;;;;;;;20.14;51.94;100467.06;6074991;23;20089;-76
2022/06/09 13:36:53;;;;;;;8.93;1.30;;;;;;;20.01;52.33;100468.06;6075485;23;20010;-74
2022/06/09 13:39:28;;;;;;;6.30;1.88;;;;;;;19.79;53.28;100478.22;6076990;23;20384;-75
2022/06/09 13:42:29;;;;;;;8.60;1.30;;;;;;;19.74;54.08;100480.28;6101610;23;20011;-74
2022/06/09 13:45:12;;;;;;;6.30;1.13;;;;;;;19.77;53.97;100479.63;6016586;23;20445;-76
2022/06/09 13:47:42;;;;;;;14.20;1.58;;;;;;;19.80;53.99;100479.00;6101462;23;20010;-75
2022/06/09 13:50:17;;;;;;;9.43;1.33;;;;;;;20.00;53.85;100488.63;6075761;23;20375;-76
2022/06/09 13:52:42;;;;;;;6.63;1.25;;;;;;;20.51;52.50;100474.97;6074200;23;20017;-75
2022/06/09 13:55:20;;;;;;;19.05;2.60;;;;;;;20.53;52.65;100478.22;6074729;23;20014;-75
2022/06/09 13:57:48;;;;;;;7.30;1.40;;;;;;;20.13;53.09;100478.50;6077907;23;20010;-74
2022/06/09 14:00:32;;;;;;;13.05;1.90;;;;;;;19.71;54.73;100465.94;6077288;23;20042;-76
2022/06/09 14:03:14;;;;;;;12.07;1.42;;;;;;;19.82;55.18;100477.53;6130105;23;20013;-75
2022/06/09 14:05:54;;;;;;;4.43;1.00;;;;;;;20.20;54.30;100487.16;6105269;23;20006;-76
2022/06/09 14:08:23;;;;;;;10.18;1.63;;;;;;;19.99;53.36;100482.28;6104182;23;20006;-75
2022/06/09 14:11:08;;;;;;;8.35;1.55;;;;;;;19.94;54.00;100474.09;6106793;23;19998;-75
2022/06/09 14:13:53;;;;;;;;;;;;;;;;;;;;;
2022/06/09 14:16:46;;;;;;;9.50;1.60;;;;;;;20.02;52.25;100462.19;6130469;23;20037;-76
2022/06/09 14:19:34;;;;;;;;;;;;;;;;;;;;;
2022/06/09 14:22:00;;;;;;;7.97;1.10;;;;;;;19.11;53.99;100430.66;6132067;23;20041;-74
2022/06/09 14:24:31;;;;;;;11.05;1.75;;;;;;;18.91;54.82;100449.53;6108630;23;19994;-75
2022/06/09 14:26:58;;;;;;;4.82;1.13;;;;;;;18.93;55.38;100469.41;6082766;23;20041;-75
2022/06/09 14:29:24;;;;;;;5.53;1.35;;;;;;;18.91;55.71;100477.25;6108044;23;20010;-75
2022/06/09 14:32:02;;;;;;;;;;;;;;;;;;;;;
2022/06/09 14:34:41;;;;;;;13.05;1.48;;;;;;;19.01;56.20;100489.97;6131820;23;20464;-75
2022/06/09 14:37:06;;;;;;;18.23;2.15;;;;;;;18.94;55.03;100493.22;6084117;23;20050;-75
2022/06/09 14:39:32;;;;;;;7.97;0.95;;;;;;;18.83;55.22;100480.75;6106069;23;20009;-74